createdAt,value
2019-02-22T00:03:47.558Z,102568.02
2019-02-22T00:09:53.365Z,102570.59
2019-02-22T00:15:59.700Z,102566.11
2019-02-22T00:22:05.958Z,102581.94
2019-02-22T00:28:11.817Z,102592.03
2019-02-22T00:34:18.183Z,102600.99
2019-02-22T00:40:24.227Z,102599.61
2019-02-22T00:46:30.279Z,102598.30
2019-02-22T00:52:36.759Z,102595.88
2019-02-22T00:58:42.817Z,102601.27
2019-02-22T01:04:48.737Z,102608.20
2019-02-22T01:10:54.467Z,102608.91
2019-02-22T01:17:00.469Z,102619.66
2019-02-22T01:23:06.663Z,102617.69
2019-02-22T01:29:12.439Z,102619.92
2019-02-22T01:35:18.189Z,102622.31
2019-02-22T01:41:24.170Z,102628.07
2019-02-22T01:47:30.110Z,102638.83
2019-02-22T01:53:35.974Z,102633.55
2019-02-22T01:59:41.701Z,102635.36
2019-02-22T02:05:47.735Z,102645.37
2019-02-22T02:11:53.806Z,102641.30
2019-02-22T02:17:59.952Z,102644.44
2019-02-22T02:24:06.108Z,102650.36
2019-02-22T02:30:12.474Z,102656.47
2019-02-22T02:36:18.557Z,102656.73
2019-02-22T02:42:24.520Z,102662.22
2019-02-22T02:48:30.735Z,102656.91
2019-02-22T02:54:36.834Z,102659.70
2019-02-22T03:00:42.612Z,102658.51
2019-02-22T03:07:05.524Z,102656.85
2019-02-22T03:13:11.590Z,102659.88
2019-02-22T03:19:17.384Z,102655.92
2019-02-22T03:25:23.443Z,102668.12
2019-02-22T03:31:29.458Z,102677.47
2019-02-22T03:37:35.439Z,102686.28
2019-02-22T03:43:41.938Z,102676.84
2019-02-22T03:49:48.058Z,102679.81
2019-02-22T03:55:53.938Z,102692.18
2019-02-22T04:01:59.984Z,102699.08
2019-02-22T04:08:07.277Z,102712.52
2019-02-22T04:14:13.485Z,102724.81
2019-02-22T04:20:19.555Z,102734.93
2019-02-22T04:26:25.530Z,102738.13
2019-02-22T04:32:31.305Z,102740.33
2019-02-22T04:38:37.157Z,102746.28
2019-02-22T04:44:43.164Z,102745.34
2019-02-22T04:50:49.271Z,102742.16
2019-02-22T04:56:55.111Z,102748.28
2019-02-22T05:03:00.961Z,102754.75
2019-02-22T05:09:07.468Z,102754.61
2019-02-22T05:15:13.343Z,102764.34
2019-02-22T05:21:19.572Z,102767.95
2019-02-22T05:27:25.616Z,102763.18
2019-02-22T05:33:31.471Z,102772.01
2019-02-22T05:39:37.392Z,102780.48
2019-02-22T05:45:43.759Z,102786.58
2019-02-22T05:51:49.762Z,102792.96
2019-02-22T05:57:55.643Z,102804.77
2019-02-22T06:04:01.637Z,102804.84
2019-02-22T06:10:09.608Z,102812.94
2019-02-22T06:16:15.602Z,102823.48
2019-02-22T06:22:29.571Z,102828.38
2019-02-22T06:28:28.983Z,102828.44
2019-02-22T06:34:34.952Z,102831.90
2019-02-22T06:40:41.186Z,102840.81
2019-02-22T06:46:47.471Z,102849.17
2019-02-22T06:52:53.498Z,102852.19
2019-02-22T06:58:59.656Z,102857.75
2019-02-22T07:05:06.098Z,102872.01
2019-02-22T07:11:33.767Z,102880.00
2019-02-22T07:17:39.608Z,102889.34
2019-02-22T07:23:46.069Z,102895.42
2019-02-22T07:29:52.030Z,102894.61
2019-02-22T07:35:59.107Z,102901.28
2019-02-22T07:42:04.995Z,102903.69
2019-02-22T07:48:11.046Z,102916.55
2019-02-22T07:54:17.056Z,102929.44
2019-02-22T08:00:23.039Z,102934.09
2019-02-22T08:06:29.852Z,102945.59
2019-02-22T08:12:35.758Z,102956.22
2019-02-22T08:18:41.877Z,102966.02
2019-02-22T08:24:48.044Z,102986.32
2019-02-22T08:30:53.938Z,102994.30
2019-02-22T08:36:59.731Z,103007.92
2019-02-22T08:43:05.747Z,103022.56
2019-02-22T08:49:13.506Z,103019.91
2019-02-22T08:55:19.671Z,103030.28
2019-02-22T09:01:25.693Z,103034.31
2019-02-22T09:07:31.770Z,103034.25
2019-02-22T09:13:43.637Z,103033.95
2019-02-22T09:19:45.835Z,103036.72
2019-02-22T09:25:51.842Z,103032.41
2019-02-22T09:31:57.941Z,103044.09
2019-02-22T09:38:03.681Z,103057.05
2019-02-22T09:44:09.748Z,103062.19
2019-02-22T09:50:16.021Z,103057.91
2019-02-22T09:56:21.787Z,103058.52
2019-02-22T10:02:28.036Z,103065.91
2019-02-22T10:08:33.928Z,103069.95
2019-02-22T10:14:39.702Z,103070.61
2019-02-22T10:20:45.981Z,103071.59
2019-02-22T10:26:52.474Z,103077.63
2019-02-22T10:32:58.231Z,103079.69
2019-02-22T10:39:06.125Z,103081.41
2019-02-22T10:45:12.810Z,103091.42
2019-02-22T10:51:18.750Z,103083.56
2019-02-22T10:57:24.940Z,103095.94
2019-02-22T11:03:30.775Z,103094.59
2019-02-22T11:09:36.745Z,103091.06
2019-02-22T11:15:43.106Z,103100.91
2019-02-22T11:21:49.334Z,103100.42
2019-02-22T11:27:55.787Z,103098.40
2019-02-22T11:34:02.027Z,103099.86
2019-02-22T11:40:08.387Z,103096.45
2019-02-22T11:46:14.338Z,103096.05
2019-02-22T11:52:20.073Z,103098.00
2019-02-22T11:58:26.014Z,103102.16
2019-02-22T12:04:32.125Z,103101.09
2019-02-22T12:10:38.073Z,103099.05
2019-02-22T12:16:43.963Z,103100.40
2019-02-22T12:22:49.920Z,103099.92
2019-02-22T12:28:58.766Z,103099.28
2019-02-22T12:35:04.778Z,103093.34
2019-02-22T12:41:10.843Z,103108.85
2019-02-22T12:47:16.884Z,103102.81
2019-02-22T12:53:22.833Z,103116.12
2019-02-22T12:59:28.704Z,103117.42
2019-02-22T13:05:34.482Z,103116.18
2019-02-22T13:11:40.269Z,103122.05
2019-02-22T13:17:46.182Z,103119.59
2019-02-22T13:23:52.358Z,103120.75
2019-02-22T13:29:58.372Z,103119.02
2019-02-22T13:36:04.392Z,103115.66
2019-02-22T13:42:10.199Z,103117.98
2019-02-22T13:48:16.408Z,103122.55
2019-02-22T13:54:22.527Z,103123.62
2019-02-22T14:00:28.417Z,103123.55
2019-02-22T14:06:34.154Z,103115.00
2019-02-22T14:12:40.490Z,103122.95
2019-02-22T14:18:46.512Z,103127.22
2019-02-22T14:24:52.529Z,103131.77
2019-02-22T14:30:58.819Z,103132.25
2019-02-22T14:37:05.197Z,103123.45
2019-02-22T14:43:16.513Z,103127.47
2019-02-22T14:49:18.885Z,103137.16
2019-02-22T14:55:24.773Z,103129.80
2019-02-22T15:01:30.893Z,103135.61
2019-02-22T15:07:36.967Z,103140.77
2019-02-22T15:13:42.918Z,103138.23
2019-02-22T15:19:48.716Z,103145.40
2019-02-22T15:25:54.810Z,103146.60
2019-02-22T15:32:01.024Z,103150.10
2019-02-22T15:38:06.860Z,103148.17
2019-02-22T15:44:13.150Z,103149.73
2019-02-22T15:50:19.068Z,103156.72
2019-02-22T15:56:25.094Z,103149.34
2019-02-22T16:02:31.366Z,103145.11
2019-02-22T16:08:37.300Z,103146.19
2019-02-22T16:14:43.256Z,103153.80
2019-02-22T16:20:49.163Z,103159.39
2019-02-22T16:27:04.199Z,103175.42
2019-02-22T16:33:10.309Z,103176.31
2019-02-22T16:39:16.125Z,103187.33
2019-02-22T16:45:21.996Z,103192.93
2019-02-22T16:51:28.157Z,103179.88
2019-02-22T16:57:34.042Z,103183.75
2019-02-22T17:03:40.545Z,103198.86
2019-02-22T17:09:46.319Z,103201.88
2019-02-22T17:15:52.264Z,103199.86
2019-02-22T17:21:58.055Z,103220.78
2019-02-22T17:28:04.358Z,103228.56
2019-02-22T17:34:10.130Z,103227.95
2019-02-22T17:40:16.289Z,103224.59
2019-02-22T17:46:22.121Z,103223.61
2019-02-22T17:52:27.991Z,103236.34
2019-02-22T17:58:34.010Z,103248.36
2019-02-22T18:04:39.760Z,103243.07
2019-02-22T18:10:45.692Z,103245.94
2019-02-22T18:16:51.652Z,103248.44
2019-02-22T18:22:57.911Z,103240.91
2019-02-22T18:29:03.970Z,103233.61
2019-02-22T18:35:11.299Z,103239.60
2019-02-22T18:41:17.377Z,103247.47
2019-02-22T18:47:23.395Z,103244.95
2019-02-22T18:53:29.411Z,103231.36
2019-02-22T18:59:37.132Z,103236.93
2019-02-22T19:05:43.163Z,103215.56
2019-02-22T19:11:49.279Z,103218.45
2019-02-22T19:17:55.255Z,103207.97
2019-02-22T19:24:01.409Z,103226.11
2019-02-22T19:30:09.890Z,103244.38
2019-02-22T19:36:15.829Z,103257.28
2019-02-22T19:42:21.648Z,103267.66
2019-02-22T19:48:27.662Z,103279.34
2019-02-22T19:54:33.683Z,103279.97
2019-02-22T20:00:40.538Z,103296.53
2019-02-22T20:06:46.341Z,103303.89
2019-02-22T20:12:52.333Z,103303.00
2019-02-22T20:18:58.401Z,103297.66
2019-02-22T20:25:04.583Z,103300.16
2019-02-22T20:31:19.838Z,103291.09
2019-02-22T20:37:19.187Z,103297.72
2019-02-22T20:43:25.435Z,103291.48
2019-02-22T20:49:31.413Z,103296.06
2019-02-22T20:55:38.610Z,103304.87
2019-02-22T21:01:44.452Z,103309.86
2019-02-22T21:07:50.543Z,103309.87
2019-02-22T21:14:00.258Z,103312.22
2019-02-22T21:20:06.502Z,103310.62
2019-02-22T21:26:12.733Z,103310.91
2019-02-22T21:32:18.619Z,103327.77
2019-02-22T21:38:24.615Z,103332.81
2019-02-22T21:44:30.359Z,103323.77
2019-02-22T21:50:36.309Z,103334.58
2019-02-22T21:56:42.361Z,103335.87
2019-02-22T22:02:48.308Z,103331.23
2019-02-22T22:08:55.475Z,103338.59
2019-02-22T22:15:01.612Z,103340.91
2019-02-22T22:21:08.223Z,103348.58
2019-02-22T22:27:14.400Z,103342.89
2019-02-22T22:33:20.493Z,103348.32
2019-02-22T22:39:26.450Z,103342.73
2019-02-22T22:45:32.404Z,103350.34
2019-02-22T22:51:38.298Z,103347.01
2019-02-22T22:57:44.406Z,103345.49
2019-02-22T23:03:50.563Z,103351.86
2019-02-22T23:09:56.438Z,103348.34
2019-02-22T23:16:02.274Z,103352.55
2019-02-22T23:22:08.474Z,103352.47
2019-02-22T23:28:14.576Z,103360.19
2019-02-22T23:34:20.384Z,103374.84
2019-02-22T23:40:26.797Z,103375.38
2019-02-22T23:46:32.731Z,103366.11
2019-02-22T23:52:39.084Z,103369.29
2019-02-22T23:58:44.938Z,103363.91
